Time;durP1;ratioP1;P1;durP2;ratioP2;P2;SDS_P1;SDS_P2;PMS_P1;PMS_P2;Temp;Humidity;BMP_temperature;BMP_pressure;BME280_temperature;BME280_humidity;BME280_pressure;Samples;Min_cycle;Max_cycle;Signal;HPM_P1;HPM_P2
2023/04/07 00:00:29;;;;;;;13.13;9.48;;;7.30;99.90;;;;;;5095236;28;20035;-75
2023/04/07 00:02:55;;;;;;;12.90;9.27;;;7.30;99.90;;;;;;5094677;28;20052;-74
2023/04/07 00:05:21;;;;;;;12.77;9.30;;;7.30;99.90;;;;;;5094533;28;20048;-74
2023/04/07 00:07:48;;;;;;;14.57;9.55;;;7.30;99.90;;;;;;5094608;28;20109;-74
2023/04/07 00:10:14;;;;;;;12.85;9.18;;;7.30;99.90;;;;;;5094431;28;20036;-73
2023/04/07 00:12:40;;;;;;;13.02;8.82;;;7.30;99.90;;;;;;5094449;28;20119;-74
2023/04/07 00:15:06;;;;;;;13.38;9.93;;;7.30;99.90;;;;;;5094424;28;20079;-75
2023/04/07 00:17:32;;;;;;;14.23;9.65;;;7.30;99.90;;;;;;5094414;28;20044;-74
2023/04/07 00:19:57;;;;;;;13.07;9.07;;;7.20;99.90;;;;;;5076674;28;20055;-74
2023/04/07 00:22:23;;;;;;;13.18;9.80;;;7.20;99.90;;;;;;5076503;28;20054;-74
2023/04/07 00:24:49;;;;;;;13.95;9.32;;;7.10;99.90;;;;;;5094183;28;20453;-74
2023/04/07 00:27:14;;;;;;;14.32;9.55;;;7.20;99.90;;;;;;5072847;28;20053;-74
2023/04/07 00:29:42;;;;;;;15.05;10.32;;;7.30;99.90;;;;;;5073605;28;20071;-73
2023/04/07 00:32:08;;;;;;;13.43;9.40;;;7.20;99.90;;;;;;5072922;28;20040;-74
2023/04/07 00:34:34;;;;;;;14.10;10.15;;;7.20;99.90;;;;;;5072294;28;20450;-75
2023/04/07 00:37:00;;;;;;;15.15;9.90;;;7.20;99.90;;;;;;5074180;28;20044;-74
2023/04/07 00:39:26;;;;;;;13.32;9.90;;;7.20;99.90;;;;;;5073815;28;20044;-74
2023/04/07 00:41:52;;;;;;;14.45;10.02;;;7.20;99.90;;;;;;5073723;28;20048;-73
2023/04/07 00:44:18;;;;;;;14.10;10.05;;;7.20;99.90;;;;;;5073699;28;20553;-76
2023/04/07 00:46:44;;;;;;;13.65;9.43;;;7.30;99.90;;;;;;5072910;28;20043;-74
2023/04/07 00:49:11;;;;;;;12.80;9.50;;;7.20;99.90;;;;;;5073509;28;20052;-73
2023/04/07 00:51:37;;;;;;;18.48;10.40;;;7.30;99.90;;;;;;5073605;28;20123;-75
2023/04/07 00:54:03;;;;;;;13.85;10.38;;;7.20;99.90;;;;;;5073544;28;20135;-74
2023/04/07 00:56:29;;;;;;;13.43;10.07;;;7.30;99.90;;;;;;5073531;28;20083;-74
2023/04/07 00:58:54;;;;;;;12.77;9.57;;;7.30;99.90;;;;;;5073531;28;20080;-73
2023/04/07 01:01:29;;;;;;;14.30;9.63;;;7.40;99.90;;;;;;5074063;28;20382;-74
2023/04/07 01:04:06;;;;;;;14.15;10.43;;;7.30;99.90;;;;;;5073681;28;20474;-75
2023/04/07 01:06:37;;;;;;;15.27;10.23;;;7.30;99.90;;;;;;5074176;28;20365;-74
2023/04/07 01:09:13;;;;;;;14.55;10.27;;;7.30;99.90;;;;;;5073353;28;20087;-73
2023/04/07 01:12:04;;;;;;;12.43;9.57;;;7.30;99.90;;;;;;5073496;28;20054;-74
2023/04/07 01:14:44;;;;;;;15.18;9.90;;;7.30;99.90;;;;;;5073408;28;20140;-74
2023/04/07 01:17:12;;;;;;;15.18;9.77;;;7.20;99.90;;;;;;5072673;28;20503;-74
2023/04/07 01:19:52;;;;;;;15.75;11.00;;;7.20;99.90;;;;;;5074010;28;20040;-74
2023/04/07 01:22:26;;;;;;;14.90;10.27;;;7.20;99.90;;;;;;5073916;28;20500;-75
2023/04/07 01:25:30;;;;;;;14.95;10.35;;;7.10;99.90;;;;;;5073268;28;20136;-75
2023/04/07 01:28:07;;;;;;;14.40;10.75;;;7.20;99.90;;;;;;5030679;28;20140;-75
2023/04/07 01:30:37;;;;;;;14.52;10.48;;;7.20;99.90;;;;;;5069396;28;20432;-73
2023/04/07 01:33:05;;;;;;;15.60;10.32;;;7.20;99.90;;;;;;5073947;28;20052;-73
2023/04/07 01:35:34;;;;;;;16.58;10.80;;;7.20;99.90;;;;;;5072992;28;20540;-74
2023/04/07 01:38:02;;;;;;;14.63;10.13;;;7.30;99.90;;;;;;5073084;28;20127;-74
2023/04/07 01:40:29;;;;;;;15.48;11.30;;;7.20;99.90;;;;;;5073057;28;20047;-76
2023/04/07 01:42:56;;;;;;;15.55;10.55;;;7.20;99.90;;;;;;5073306;28;20059;-74
2023/04/07 01:45:23;;;;;;;15.32;10.73;;;7.20;99.90;;;;;;5072996;28;20052;-74
2023/04/07 01:47:49;;;;;;;15.23;10.65;;;7.20;99.90;;;;;;5075902;28;20056;-73
2023/04/07 01:50:16;;;;;;;14.85;11.00;;;7.20;99.90;;;;;;5075771;28;20055;-74
2023/04/07 01:52:42;;;;;;;15.32;10.75;;;7.20;99.90;;;;;;5076909;28;20046;-73
2023/04/07 01:55:09;;;;;;;15.27;10.70;;;7.10;99.90;;;;;;5076894;28;20083;-74
2023/04/07 01:57:34;;;;;;;15.50;11.32;;;7.10;99.90;;;;;;5076829;28;20048;-74
2023/04/07 02:00:00;;;;;;;14.55;10.90;;;7.10;99.90;;;;;;5076117;28;20066;-73
2023/04/07 02:02:27;;;;;;;14.95;10.90;;;7.20;99.90;;;;;;5075171;28;20145;-74
2023/04/07 02:05:06;;;;;;;15.70;10.93;;;7.20;99.90;;;;;;5076620;28;20052;-73
2023/04/07 02:08:13;;;;;;;16.17;11.57;;;7.20;99.90;;;;;;5076616;28;20127;-74
2023/04/07 02:10:39;;;;;;;15.80;10.88;;;7.20;99.90;;;;;;5067823;28;20064;-75
2023/04/07 02:13:07;;;;;;;14.57;10.50;;;7.10;99.90;;;;;;5076475;28;20117;-73
2023/04/07 02:15:34;;;;;;;15.13;10.55;;;7.10;99.90;;;;;;5076470;28;20048;-75
2023/04/07 02:18:02;;;;;;;15.02;10.30;;;7.10;99.90;;;;;;5075458;28;20607;-74
2023/04/07 02:20:28;;;;;;;15.88;10.55;;;7.20;99.90;;;;;;5075423;28;20056;-74
2023/04/07 02:22:54;;;;;;;15.35;10.88;;;7.20;99.90;;;;;;5076316;28;20049;-74
2023/04/07 02:25:29;;;;;;;15.13;10.35;;;7.20;99.90;;;;;;5075337;28;20378;-73
2023/04/07 02:27:57;;;;;;;14.77;10.30;;;7.20;99.90;;;;;;5087244;28;20131;-73
2023/04/07 02:30:24;;;;;;;13.93;10.50;;;7.20;99.90;;;;;;5078636;28;20500;-77
2023/04/07 02:32:50;;;;;;;16.52;11.43;;;7.20;99.90;;;;;;5096320;28;20051;-74
2023/04/07 02:35:16;;;;;;;16.23;10.98;;;7.20;99.90;;;;;;5078540;28;20062;-73
2023/04/07 02:37:43;;;;;;;15.25;11.07;;;7.30;99.90;;;;;;5096317;28;20048;-74
2023/04/07 02:40:09;;;;;;;15.40;10.57;;;7.20;99.90;;;;;;5078376;28;20059;-74
2023/04/07 02:42:35;;;;;;;14.60;10.70;;;7.20;99.90;;;;;;5096732;28;20048;-74
2023/04/07 02:45:05;;;;;;;17.33;11.43;;;7.30;99.90;;;;;;5096225;28;20074;-73
2023/04/07 02:47:31;;;;;;;15.60;10.98;;;7.30;99.90;;;;;;5078468;28;20055;-74
2023/04/07 02:49:57;;;;;;;15.82;10.07;;;7.20;99.90;;;;;;5095688;28;20485;-74
2023/04/07 02:52:23;;;;;;;15.73;11.32;;;7.30;99.90;;;;;;5096007;28;20051;-74
2023/04/07 02:54:48;;;;;;;14.88;10.52;;;7.30;99.90;;;;;;5096449;28;20079;-73
2023/04/07 02:57:14;;;;;;;13.02;9.05;;;7.30;99.90;;;;;;5095519;28;20052;-74
2023/04/07 02:59:40;;;;;;;13.35;10.25;;;7.20;99.90;;;;;;5095896;28;20358;-75
2023/04/07 03:02:06;;;;;;;14.80;10.45;;;7.30;99.90;;;;;;5096375;28;20084;-74
2023/04/07 03:04:32;;;;;;;14.38;10.43;;;7.20;99.90;;;;;;5095858;28;20051;-74
2023/04/07 03:06:57;;;;;;;14.02;10.10;;;7.30;99.90;;;;;;5095911;28;20389;-73
2023/04/07 03:09:23;;;;;;;13.85;9.60;;;7.20;99.90;;;;;;5078566;28;20448;-74
2023/04/07 03:11:49;;;;;;;12.63;9.70;;;7.20;99.90;;;;;;5095317;28;20044;-74
2023/04/07 03:14:15;;;;;;;14.75;9.98;;;7.20;99.90;;;;;;5096438;28;20046;-74
2023/04/07 03:16:41;;;;;;;14.45;9.95;;;7.20;99.90;;;;;;5095554;28;20538;-73
2023/04/07 03:19:07;;;;;;;14.65;9.60;;;7.20;99.90;;;;;;5096295;28;20044;-74
2023/04/07 03:21:33;;;;;;;13.35;9.57;;;7.20;99.90;;;;;;5095538;28;20040;-76
2023/04/07 03:23:59;;;;;;;13.35;9.50;;;7.20;99.90;;;;;;5095437;28;20126;-74
2023/04/07 03:26:25;;;;;;;13.48;9.50;;;7.20;99.90;;;;;;5095332;28;20507;-73
2023/04/07 03:28:51;;;;;;;14.65;9.98;;;7.20;99.90;;;;;;5077243;28;20087;-74
2023/04/07 03:31:16;;;;;;;14.52;9.68;;;7.20;99.90;;;;;;5095136;28;20078;-73
2023/04/07 03:33:42;;;;;;;13.35;9.82;;;7.20;99.90;;;;;;5095583;28;20086;-75
2023/04/07 03:36:08;;;;;;;13.30;9.25;;;7.20;99.90;;;;;;5095394;28;20051;-74
2023/04/07 03:38:33;;;;;;;13.13;9.15;;;7.10;99.90;;;;;;5095166;28;20075;-73
2023/04/07 03:40:59;;;;;;;13.65;9.57;;;7.20;99.90;;;;;;5077299;28;20452;-73
2023/04/07 03:43:25;;;;;;;14.75;9.40;;;7.10;99.90;;;;;;5095071;28;20047;-73
2023/04/07 03:45:54;;;;;;;14.05;9.88;;;7.20;99.90;;;;;;5077964;28;20130;-75
2023/04/07 03:48:20;;;;;;;12.65;9.27;;;7.20;99.90;;;;;;5095763;28;20079;-74
2023/04/07 03:50:46;;;;;;;14.55;9.98;;;7.20;99.90;;;;;;5094939;28;20465;-73
2023/04/07 03:53:15;;;;;;;15.02;9.55;;;7.20;99.90;;;;;;5094941;28;20515;-74
2023/04/07 03:55:42;;;;;;;14.02;9.57;;;7.20;99.90;;;;;;5094784;28;20505;-76
2023/04/07 03:58:08;;;;;;;15.18;9.45;;;7.20;99.90;;;;;;5094838;28;20083;-74
2023/04/07 04:00:34;;;;;;;16.50;10.55;;;7.20;99.90;;;;;;5076753;28;20044;-75
2023/04/07 04:03:01;;;;;;;14.02;10.00;;;7.10;99.90;;;;;;5077056;28;20055;-73
2023/04/07 04:05:26;;;;;;;13.18;9.50;;;7.10;99.90;;;;;;5095341;28;20044;-74
2023/04/07 04:07:52;;;;;;;13.10;10.05;;;7.10;99.90;;;;;;5094573;28;20358;-74
2023/04/07 04:10:18;;;;;;;14.50;9.95;;;7.20;99.90;;;;;;5076599;28;20055;-74
2023/04/07 04:12:46;;;;;;;13.65;10.02;;;7.10;99.90;;;;;;5076566;28;20040;-75
2023/04/07 04:15:12;;;;;;;13.98;9.32;;;7.10;99.90;;;;;;5094461;28;20043;-74
2023/04/07 04:17:37;;;;;;;12.57;8.68;;;7.10;99.90;;;;;;5076305;28;20044;-77
2023/04/07 04:20:04;;;;;;;11.68;8.95;;;7.10;99.90;;;;;;5077208;28;20055;-74
2023/04/07 04:22:30;;;;;;;13.02;9.02;;;7.00;99.90;;;;;;5094250;28;20048;-74
2023/04/07 04:24:55;;;;;;;13.75;9.10;;;7.00;99.90;;;;;;5077131;28;20093;-74
2023/04/07 04:27:21;;;;;;;12.77;9.45;;;7.00;99.90;;;;;;5094480;28;20123;-74
2023/04/07 04:29:47;;;;;;;12.95;9.15;;;7.00;99.90;;;;;;5076478;28;20048;-75
2023/04/07 04:32:13;;;;;;;13.35;8.93;;;7.10;99.90;;;;;;5094160;28;20040;-74
2023/04/07 04:34:40;;;;;;;12.93;8.55;;;7.00;99.90;;;;;;5094590;28;20189;-74
2023/04/07 04:37:06;;;;;;;14.27;9.60;;;7.00;99.90;;;;;;5094027;28;20052;-76
2023/04/07 04:39:32;;;;;;;11.88;8.45;;;7.00;99.90;;;;;;5093976;28;20047;-74
2023/04/07 04:41:58;;;;;;;13.65;8.57;;;7.00;99.90;;;;;;5076321;28;20066;-73
2023/04/07 04:44:24;;;;;;;11.85;8.68;;;7.00;99.90;;;;;;5093908;28;20116;-73
2023/04/07 04:46:51;;;;;;;12.52;8.75;;;7.10;99.90;;;;;;5093886;28;20048;-76
2023/04/07 04:49:17;;;;;;;12.95;8.32;;;7.10;99.90;;;;;;5094521;28;20102;-74
2023/04/07 04:51:44;;;;;;;14.93;9.20;;;7.10;99.90;;;;;;5094078;28;20044;-76
2023/04/07 04:54:10;;;;;;;13.43;8.88;;;7.10;99.90;;;;;;5094341;28;20079;-74
2023/04/07 04:56:35;;;;;;;13.60;9.57;;;7.00;99.90;;;;;;5093769;28;20420;-73
2023/04/07 04:59:02;;;;;;;12.50;8.98;;;7.00;99.90;;;;;;5094207;28;20043;-73
2023/04/07 05:01:28;;;;;;;12.07;8.85;;;7.00;99.90;;;;;;5093611;28;20063;-73
2023/04/07 05:03:54;;;;;;;13.38;9.20;;;7.00;99.90;;;;;;5093583;28;20047;-74
2023/04/07 05:06:20;;;;;;;13.77;9.90;;;7.00;99.90;;;;;;5075838;28;20123;-74
2023/04/07 05:08:46;;;;;;;15.07;9.35;;;7.00;99.90;;;;;;5094035;28;20044;-73
2023/04/07 05:11:12;;;;;;;12.63;9.23;;;7.00;99.90;;;;;;5093279;28;20036;-73
2023/04/07 05:13:37;;;;;;;14.90;9.63;;;7.00;99.90;;;;;;5075526;28;20105;-74
2023/04/07 05:16:04;;;;;;;12.85;9.48;;;7.00;99.90;;;;;;5094123;28;20441;-73
2023/04/07 05:18:30;;;;;;;16.75;10.60;;;7.00;99.90;;;;;;5092931;28;20170;-74
2023/04/07 05:20:55;;;;;;;12.90;9.25;;;7.10;99.90;;;;;;5074592;28;20048;-73
2023/04/07 05:23:21;;;;;;;14.00;9.40;;;7.00;99.90;;;;;;5093198;28;20089;-74
2023/04/07 05:25:47;;;;;;;13.90;9.00;;;7.10;99.90;;;;;;5094098;28;20046;-75
2023/04/07 05:28:13;;;;;;;13.00;9.32;;;7.00;99.90;;;;;;5075287;28;20495;-73
2023/04/07 05:30:38;;;;;;;14.90;9.57;;;7.10;99.90;;;;;;5093324;28;20052;-74
2023/04/07 05:33:04;;;;;;;13.85;9.90;;;7.10;99.90;;;;;;5093812;28;20040;-75
2023/04/07 05:35:30;;;;;;;13.82;9.23;;;7.00;99.90;;;;;;5093284;28;20051;-73
2023/04/07 05:37:55;;;;;;;14.15;9.57;;;7.00;99.90;;;;;;5093332;28;20044;-73
2023/04/07 05:40:21;;;;;;;12.70;9.23;;;7.00;99.90;;;;;;5093261;28;20079;-74
2023/04/07 05:42:47;;;;;;;14.68;9.55;;;7.00;99.90;;;;;;5093244;28;20036;-73
2023/04/07 05:45:13;;;;;;;15.02;9.82;;;7.00;99.90;;;;;;5093235;28;20515;-76
2023/04/07 05:47:39;;;;;;;15.07;9.65;;;7.00;99.90;;;;;;5093169;28;20464;-73
2023/04/07 05:50:05;;;;;;;14.48;9.35;;;7.00;99.90;;;;;;5093381;28;20381;-76
2023/04/07 05:52:31;;;;;;;12.93;9.25;;;7.00;99.90;;;;;;5093170;28;20048;-75
2023/04/07 05:54:57;;;;;;;14.27;9.57;;;7.00;99.90;;;;;;5093079;28;20539;-75
2023/04/07 05:57:22;;;;;;;13.95;10.13;;;7.00;99.90;;;;;;5075857;28;20048;-76
2023/04/07 05:59:48;;;;;;;13.38;9.68;;;7.00;99.90;;;;;;5092833;28;20489;-75
2023/04/07 06:02:14;;;;;;;13.77;9.70;;;7.00;99.90;;;;;;5092946;28;20055;-78
2023/04/07 06:04:40;;;;;;;14.95;10.10;;;7.10;99.90;;;;;;5074977;28;20047;-75
2023/04/07 06:07:06;;;;;;;14.57;9.65;;;7.00;99.90;;;;;;5092997;28;20131;-74
2023/04/07 06:09:31;;;;;;;14.75;9.85;;;7.10;99.90;;;;;;5092952;28;20086;-75
2023/04/07 06:11:57;;;;;;;15.70;10.88;;;7.10;99.90;;;;;;5092970;28;20109;-76
2023/04/07 06:14:23;;;;;;;14.00;10.07;;;7.10;99.90;;;;;;5092975;28;20055;-76
2023/04/07 06:16:49;;;;;;;13.18;9.93;;;7.10;99.90;;;;;;5092925;28;20102;-76
2023/04/07 06:19:14;;;;;;;13.65;10.25;;;7.10;99.90;;;;;;5092929;28;20086;-74
2023/04/07 06:21:40;;;;;;;13.50;10.00;;;7.20;99.90;;;;;;5093162;28;20047;-75
2023/04/07 06:24:06;;;;;;;15.45;9.57;;;7.20;99.90;;;;;;5092881;28;20468;-73
2023/04/07 06:26:32;;;;;;;14.10;9.63;;;7.20;99.90;;;;;;5092900;28;20052;-74
2023/04/07 06:28:58;;;;;;;13.07;9.35;;;7.20;99.90;;;;;;5041579;28;20097;-74
2023/04/07 06:31:24;;;;;;;14.18;10.13;;;7.30;99.90;;;;;;5093212;28;20040;-74
2023/04/07 06:33:50;;;;;;;13.52;9.05;;;7.30;99.90;;;;;;5096232;28;20389;-74
2023/04/07 06:36:16;;;;;;;15.02;9.90;;;7.30;99.90;;;;;;5096773;28;20036;-74
2023/04/07 06:38:42;;;;;;;13.80;9.55;;;7.30;99.90;;;;;;5096200;28;20431;-74
2023/04/07 06:41:11;;;;;;;13.00;9.75;;;7.30;99.90;;;;;;5095671;28;20052;-76
2023/04/07 06:43:37;;;;;;;13.77;9.77;;;7.40;99.90;;;;;;5096520;28;20051;-74
2023/04/07 06:46:03;;;;;;;13.52;9.45;;;7.40;99.90;;;;;;5062349;28;20362;-72
2023/04/07 06:48:29;;;;;;;14.55;9.65;;;7.40;99.90;;;;;;5077832;28;20485;-75
2023/04/07 06:50:54;;;;;;;12.90;9.77;;;7.40;99.90;;;;;;5095927;28;20044;-75
2023/04/07 06:53:20;;;;;;;15.25;10.32;;;7.50;99.90;;;;;;5096511;28;20048;-75
2023/04/07 06:55:46;;;;;;;13.88;9.88;;;7.50;99.90;;;;;;5077634;28;20516;-76
2023/04/07 06:58:11;;;;;;;13.90;9.95;;;7.60;99.90;;;;;;5078791;28;20051;-74
2023/04/07 07:00:37;;;;;;;13.50;9.15;;;7.60;99.90;;;;;;5095860;28;20051;-74
2023/04/07 07:03:03;;;;;;;14.60;10.18;;;7.70;99.90;;;;;;5078035;28;20047;-74
2023/04/07 07:05:29;;;;;;;13.27;9.80;;;7.70;99.90;;;;;;5095727;28;20086;-74
2023/04/07 07:07:55;;;;;;;16.63;10.27;;;7.70;99.90;;;;;;5095815;28;20040;-75
2023/04/07 07:10:21;;;;;;;15.88;10.45;;;7.80;99.90;;;;;;5096102;28;20085;-74
2023/04/07 07:12:48;;;;;;;12.45;9.90;;;7.80;99.90;;;;;;5060825;28;20477;-75
2023/04/07 07:15:14;;;;;;;13.55;9.20;;;7.90;99.90;;;;;;5077590;28;20052;-75
2023/04/07 07:17:40;;;;;;;13.18;9.52;;;8.00;99.90;;;;;;5095577;28;20476;-75
2023/04/07 07:20:06;;;;;;;13.38;10.00;;;8.00;99.90;;;;;;5095531;28;20197;-78
2023/04/07 07:22:32;;;;;;;12.63;9.23;;;8.10;99.90;;;;;;5095492;28;20043;-75
2023/04/07 07:24:58;;;;;;;15.07;10.00;;;8.10;99.90;;;;;;5095366;28;20050;-73
2023/04/07 07:27:23;;;;;;;13.18;9.80;;;8.20;99.90;;;;;;5077891;28;20136;-74
2023/04/07 07:29:49;;;;;;;14.57;10.23;;;8.20;99.90;;;;;;5095818;28;20396;-75
2023/04/07 07:32:15;;;;;;;11.73;8.52;;;8.30;99.90;;;;;;5078123;28;20055;-75
2023/04/07 07:34:40;;;;;;;11.98;9.32;;;8.20;99.90;;;;;;5077712;28;20493;-74
2023/04/07 07:37:06;;;;;;;12.13;9.20;;;8.20;99.90;;;;;;5095013;28;20044;-74
2023/04/07 07:39:32;;;;;;;12.23;8.45;;;8.20;99.90;;;;;;5095148;28;20048;-74
2023/04/07 07:41:58;;;;;;;11.82;8.65;;;8.20;99.90;;;;;;5077961;28;20051;-75
2023/04/07 07:44:23;;;;;;;13.18;9.32;;;8.20;99.90;;;;;;5093789;28;20044;-75
2023/04/07 07:46:49;;;;;;;12.30;8.98;;;8.20;99.90;;;;;;5094675;28;20044;-76
2023/04/07 07:49:15;;;;;;;12.07;8.85;;;8.20;99.90;;;;;;5077638;28;20059;-77
2023/04/07 07:51:41;;;;;;;13.52;10.05;;;8.30;99.90;;;;;;5076587;28;20377;-78
2023/04/07 07:54:08;;;;;;;13.98;9.40;;;8.30;99.90;;;;;;5095438;28;20048;-80
2023/04/07 07:56:34;;;;;;;13.50;9.00;;;8.40;99.90;;;;;;5094405;28;20551;-75
2023/04/07 07:59:00;;;;;;;14.15;9.60;;;8.40;99.90;;;;;;5076667;28;20052;-72
2023/04/07 08:01:26;;;;;;;11.75;8.68;;;8.50;99.90;;;;;;5094741;28;20047;-72
2023/04/07 08:03:51;;;;;;;11.55;8.50;;;8.50;99.90;;;;;;5059983;28;20051;-73
2023/04/07 08:06:17;;;;;;;11.20;8.43;;;8.60;99.90;;;;;;5094244;28;20046;-77
2023/04/07 08:08:43;;;;;;;10.38;7.47;;;8.50;99.90;;;;;;5094943;28;20369;-73
2023/04/07 08:11:08;;;;;;;10.10;8.15;;;8.50;99.90;;;;;;5094854;28;20044;-75
2023/04/07 08:13:34;;;;;;;11.00;7.68;;;8.50;99.90;;;;;;5094404;28;20115;-74
2023/04/07 08:16:00;;;;;;;10.23;7.75;;;8.60;99.90;;;;;;5094371;28;20123;-77
2023/04/07 08:18:26;;;;;;;10.82;7.78;;;8.60;99.90;;;;;;5094271;28;20047;-77
2023/04/07 08:20:52;;;;;;;10.63;7.47;;;8.70;99.90;;;;;;5076430;28;20136;-76
2023/04/07 08:23:18;;;;;;;10.43;7.90;;;8.70;99.90;;;;;;5076416;28;20043;-75
2023/04/07 08:25:44;;;;;;;10.18;7.28;;;8.70;99.90;;;;;;5094938;28;20097;-77
2023/04/07 08:28:09;;;;;;;10.85;7.70;;;8.70;99.90;;;;;;5059057;28;20063;-77
2023/04/07 08:30:36;;;;;;;8.95;6.93;;;8.80;99.90;;;;;;5060127;28;20043;-75
2023/04/07 08:33:04;;;;;;;9.27;6.95;;;8.80;99.90;;;;;;5094037;28;20052;-77
2023/04/07 08:35:30;;;;;;;9.77;7.18;;;8.90;99.90;;;;;;5076787;28;20094;-77
2023/04/07 08:37:56;;;;;;;10.23;7.10;;;8.90;99.90;;;;;;5076096;28;20048;-78
2023/04/07 08:40:21;;;;;;;10.43;6.97;;;9.00;99.90;;;;;;5075739;28;20051;-74
2023/04/07 08:42:48;;;;;;;9.45;6.90;;;9.00;99.90;;;;;;5093999;28;20051;-72
2023/04/07 08:45:16;;;;;;;9.65;7.22;;;9.10;99.90;;;;;;5094589;28;20048;-73
2023/04/07 08:47:43;;;;;;;8.95;6.70;;;9.20;99.90;;;;;;5076767;28;20472;-72
2023/04/07 08:50:10;;;;;;;9.85;7.13;;;9.20;99.90;;;;;;5094197;28;20051;-72
2023/04/07 08:52:52;;;;;;;8.50;6.13;;;9.30;99.90;;;;;;5093832;28;20040;-73
2023/04/07 08:55:18;;;;;;;9.52;6.88;;;9.40;99.90;;;;;;5093859;28;20072;-72
2023/04/07 08:57:45;;;;;;;9.30;7.05;;;9.40;99.90;;;;;;5076559;28;20377;-72
2023/04/07 09:00:12;;;;;;;9.68;7.20;;;9.50;99.90;;;;;;5075979;28;20485;-71
2023/04/07 09:02:42;;;;;;;8.77;6.68;;;9.50;99.90;;;;;;5076574;28;20242;-71
2023/04/07 09:05:08;;;;;;;7.85;6.47;;;9.60;99.90;;;;;;5093576;28;20054;-72
2023/04/07 09:07:35;;;;;;;9.40;6.65;;;9.80;99.90;;;;;;5076492;28;20039;-72
2023/04/07 09:10:02;;;;;;;9.32;6.63;;;9.90;99.90;;;;;;5093346;28;20032;-73
2023/04/07 09:12:29;;;;;;;8.48;6.07;;;10.00;99.90;;;;;;5093795;28;20071;-72
2023/04/07 09:14:55;;;;;;;7.63;6.00;;;10.10;99.90;;;;;;5093058;28;20134;-73
2023/04/07 09:17:20;;;;;;;7.75;5.97;;;10.10;99.90;;;;;;5093669;28;20134;-72
2023/04/07 09:19:47;;;;;;;8.68;6.50;;;10.10;99.90;;;;;;5075655;28;20075;-73
2023/04/07 09:22:13;;;;;;;8.65;6.47;;;10.20;99.90;;;;;;5093341;28;20048;-72
2023/04/07 09:24:41;;;;;;;8.25;6.68;;;10.20;99.90;;;;;;5094097;28;20459;-71
2023/04/07 09:27:18;;;;;;;7.88;6.00;;;10.20;99.90;;;;;;5075422;28;20131;-74
2023/04/07 09:29:46;;;;;;;8.30;5.78;;;10.30;99.90;;;;;;5093763;28;20422;-77
2023/04/07 09:32:22;;;;;;;8.88;6.40;;;10.30;99.90;;;;;;5093278;28;20056;-75
2023/04/07 09:34:57;;;;;;;;;;;10.30;99.90;;;;;;5094168;28;20071;-74
2023/04/07 09:37:22;;;;;;;8.45;5.45;;;10.40;99.90;;;;;;5076219;28;19924;-75
2023/04/07 09:39:50;;;;;;;7.55;5.28;;;10.50;99.90;;;;;;5093958;28;20056;-77
2023/04/07 09:42:15;;;;;;;8.27;5.45;;;10.70;99.90;;;;;;5093286;28;20040;-74
2023/04/07 09:44:42;;;;;;;6.63;5.10;;;10.80;99.90;;;;;;5093255;28;20055;-76
2023/04/07 09:47:08;;;;;;;6.60;4.97;;;10.90;99.90;;;;;;5093679;28;20087;-76
2023/04/07 09:49:52;;;;;;;7.20;5.70;;;11.10;99.90;;;;;;5093623;28;20394;-77
2023/04/07 09:52:22;;;;;;;6.93;5.50;;;11.20;99.90;;;;;;5075533;28;20052;-78
2023/04/07 09:54:48;;;;;;;6.97;5.25;;;11.10;99.90;;;;;;5058508;28;20044;-79
2023/04/07 09:57:16;;;;;;;7.38;5.95;;;11.00;99.90;;;;;;5092995;28;20048;-75
2023/04/07 09:59:43;;;;;;;7.28;5.22;;;10.90;99.90;;;;;;5092941;28;20051;-77
2023/04/07 10:02:09;;;;;;;7.53;5.28;;;10.70;99.90;;;;;;5075166;28;20056;-76
2023/04/07 10:04:36;;;;;;;6.38;4.82;;;10.60;99.90;;;;;;5075370;28;20080;-74
2023/04/07 10:07:02;;;;;;;6.97;5.00;;;10.50;99.90;;;;;;5092866;28;20044;-75
2023/04/07 10:09:29;;;;;;;8.57;5.30;;;10.50;99.90;;;;;;5079021;28;20077;-76
2023/04/07 10:11:56;;;;;;;7.20;5.20;;;10.50;99.90;;;;;;5079633;28;20105;-76
2023/04/07 10:14:30;;;;;;;8.30;5.78;;;10.60;99.90;;;;;;5079057;28;20078;-76
2023/04/07 10:16:56;;;;;;;6.03;4.70;;;10.70;99.90;;;;;;5080263;28;20075;-76
2023/04/07 10:19:23;;;;;;;7.05;4.72;;;10.70;99.90;;;;;;5096638;28;20091;-76
2023/04/07 10:21:51;;;;;;;7.20;4.97;;;10.70;99.90;;;;;;5078671;28;20052;-75
2023/04/07 10:24:32;;;;;;;7.32;5.13;;;10.70;99.90;;;;;;5096587;28;20119;-74
2023/04/07 10:27:06;;;;;;;6.05;4.72;;;10.50;99.90;;;;;;5096606;28;20131;-76
2023/04/07 10:29:45;;;;;;;6.60;5.00;;;10.40;99.90;;;;;;5096093;28;20489;-73
2023/04/07 10:32:11;;;;;;;6.85;4.93;;;10.30;99.90;;;;;;5079133;28;20120;-73
2023/04/07 10:34:47;;;;;;;7.10;5.30;;;10.10;99.90;;;;;;5078335;28;20044;-73
2023/04/07 10:37:16;;;;;;;6.63;5.18;;;10.10;99.90;;;;;;5096254;28;20048;-73
2023/04/07 10:39:42;;;;;;;6.65;5.00;;;9.90;99.90;;;;;;5061734;28;20538;-72
2023/04/07 10:42:40;;;;;;;7.70;5.47;;;9.90;99.90;;;;;;5096225;28;20056;-73
2023/04/07 10:45:08;;;;;;;7.22;4.70;;;9.80;99.90;;;;;;5096364;28;20079;-72
2023/04/07 10:47:35;;;;;;;7.82;5.57;;;9.80;99.90;;;;;;5077944;28;20044;-72
2023/04/07 10:50:21;;;;;;;6.55;5.43;;;9.90;99.90;;;;;;5095714;28;20477;-73
2023/04/07 10:52:48;;;;;;;6.20;4.97;;;9.90;99.90;;;;;;5096113;28;20066;-72
2023/04/07 10:55:32;;;;;;;6.25;5.13;;;10.00;99.90;;;;;;5078001;28;20473;-72
2023/04/07 10:58:30;;;;;;;6.93;4.65;;;10.10;99.90;;;;;;5077421;28;20048;-73
2023/04/07 11:01:13;;;;;;;7.00;4.97;;;10.10;99.90;;;;;;5096111;28;20074;-73
2023/04/07 11:03:41;;;;;;;7.60;5.30;;;10.10;99.90;;;;;;5096295;28;20070;-75
2023/04/07 11:06:13;;;;;;;9.45;6.13;;;10.10;99.90;;;;;;5077748;28;20048;-72
2023/04/07 11:08:41;;;;;;;8.80;5.88;;;10.20;99.90;;;;;;5062099;28;20123;-72
2023/04/07 11:11:09;;;;;;;7.55;5.65;;;10.10;99.90;;;;;;5044478;28;20075;-72
2023/04/07 11:13:48;;;;;;;7.68;5.72;;;10.20;99.90;;;;;;5078145;28;20048;-73
2023/04/07 11:16:15;;;;;;;7.50;5.55;;;10.40;99.90;;;;;;5078051;28;20040;-72
2023/04/07 11:18:41;;;;;;;6.82;5.50;;;10.50;99.90;;;;;;5095241;28;20050;-73
2023/04/07 11:21:07;;;;;;;7.05;5.30;;;10.70;99.90;;;;;;5095526;28;20040;-73
2023/04/07 11:23:42;;;;;;;10.25;5.20;;;10.80;99.90;;;;;;5095944;28;20051;-71
2023/04/07 11:26:12;;;;;;;7.18;4.68;;;11.00;99.90;;;;;;5095385;28;20040;-73
2023/04/07 11:29:07;;;;;;;5.97;4.10;;;11.00;99.90;;;;;;5073821;28;20110;-71
2023/04/07 11:31:33;;;;;;;5.43;4.00;;;11.10;99.90;;;;;;5061613;28;20084;-72
2023/04/07 11:34:01;;;;;;;6.32;4.60;;;11.10;99.90;;;;;;5074921;28;20052;-75
2023/04/07 11:36:32;;;;;;;7.20;5.13;;;11.20;99.90;;;;;;5074697;28;20048;-73
2023/04/07 11:38:58;;;;;;;6.07;4.65;;;11.30;99.90;;;;;;5074894;28;20063;-73
2023/04/07 11:41:26;;;;;;;5.22;4.20;;;11.40;99.90;;;;;;5074094;28;20057;-72
2023/04/07 11:44:11;;;;;;;6.00;4.72;;;11.40;99.90;;;;;;5074789;28;20048;-72
2023/04/07 11:46:58;;;;;;;6.05;4.65;;;11.30;99.90;;;;;;5075000;28;20134;-72
2023/04/07 11:49:27;;;;;;;6.40;4.47;;;11.30;99.90;;;;;;5075444;28;20080;-71
2023/04/07 11:52:08;;;;;;;6.63;4.63;;;11.20;99.90;;;;;;5074614;28;20080;-74
2023/04/07 11:54:50;;;;;;;5.75;4.20;;;11.20;99.90;;;;;;5073552;28;20500;-72
2023/04/07 11:57:24;;;;;;;5.10;3.78;;;11.30;99.90;;;;;;5074537;28;20079;-74
2023/04/07 12:00:04;;;;;;;5.07;3.50;;;11.30;99.90;;;;;;5075204;28;20422;-72
2023/04/07 12:02:31;;;;;;;4.75;3.47;;;11.40;99.90;;;;;;5057003;28;20053;-72
2023/04/07 12:04:56;;;;;;;4.47;3.60;;;11.60;99.90;;;;;;5073665;28;20055;-73
2023/04/07 12:07:22;;;;;;;5.13;3.65;;;11.60;99.90;;;;;;5073255;28;20036;-72
2023/04/07 12:09:48;;;;;;;6.40;3.95;;;11.80;99.90;;;;;;5074716;28;20153;-72
2023/04/07 12:12:23;;;;;;;5.43;3.72;;;12.00;99.90;;;;;;5073251;28;20049;-73
2023/04/07 12:14:49;;;;;;;4.80;3.60;;;12.10;99.90;;;;;;5074733;28;20040;-72
2023/04/07 12:17:26;;;;;;;5.28;3.75;;;12.20;99.90;;;;;;5073800;28;20393;-73
2023/04/07 12:19:52;;;;;;;5.47;3.97;;;12.20;99.90;;;;;;5072895;28;20488;-72
2023/04/07 12:22:18;;;;;;;5.45;4.20;;;12.30;99.90;;;;;;5073490;28;20219;-73
2023/04/07 12:24:45;;;;;;;6.25;4.18;;;12.40;99.90;;;;;;5073840;28;20419;-73
2023/04/07 12:27:11;;;;;;;5.32;3.72;;;12.40;99.90;;;;;;5073301;28;20040;-75
2023/04/07 12:29:37;;;;;;;5.15;3.90;;;12.60;99.90;;;;;;5076621;28;20079;-73
2023/04/07 12:32:05;;;;;;;4.90;3.78;;;12.60;99.90;;;;;;5075438;28;20482;-73
2023/04/07 12:34:31;;;;;;;5.55;4.28;;;12.70;99.90;;;;;;5059757;28;20097;-74
2023/04/07 12:36:57;;;;;;;5.28;3.92;;;12.60;99.90;;;;;;5076788;28;20040;-73
2023/04/07 12:39:22;;;;;;;5.82;4.15;;;12.60;99.90;;;;;;5093957;28;20044;-72
2023/04/07 12:41:51;;;;;;;5.80;4.35;;;12.60;99.90;;;;;;5059689;28;20047;-72
2023/04/07 12:44:17;;;;;;;5.75;4.47;;;12.70;99.90;;;;;;5093869;28;20059;-74
2023/04/07 12:46:43;;;;;;;5.80;4.50;;;12.60;99.90;;;;;;5076008;28;20044;-72
2023/04/07 12:49:08;;;;;;;5.43;3.67;;;12.60;99.90;;;;;;5058846;28;20572;-75